Gerlach, Nevada
Current Conditions -  °F | °C
As of 4:53 PM on Tuesday 21 Oct 2014 (Local Time) from KLOL Reporting Station
Clear Clear  
Wind Chill: 60°   Ceiling: Unl
Heat Index: 60°   Visibility: 10mi
Dew Point: 19°   Wind: 0mph
Humidity: 20%   Direction: NA
Pressure: 30.04"   Gusts: NA
Location:  40.65°N, 119.36°W
Report Text: KLOL 212353Z AUTO 00000KT 10SM CLR 16/M07 A3004 RMK AO2 SLP162 T01561072 10161 20117 58007
Loading
Personal Weather Stations






























Interactive Weather Map
Tropical Storm Tracking
New forecast layout! Learn more

10-Day Weather Forecast

Advertisements
Track Severe Weather on mobile